Time;durP1;ratioP1;P1;durP2;ratioP2;P2;SDS_P1;SDS_P2;PMS_P1;PMS_P2;Temp;Humidity;BMP_temperature;BMP_pressure;BME280_temperature;BME280_humidity;BME280_pressure;Samples;Min_cycle;Max_cycle;Signal;HPM_P1;HPM_P2
2023/01/06 00:00:39;;;;;;;4.35;1.52;;;;;;;;;;5106799;28;20035;-80
2023/01/06 00:03:05;;;;;;;4.05;1.40;;;;;;;;;;5102492;28;20028;-82
2023/01/06 00:05:31;;;;;;;5.57;1.30;;;;;;;;;;5103607;28;20051;-82
2023/01/06 00:07:58;;;;;;;6.10;1.52;;;;;;;;;;5100700;28;20084;-83
2023/01/06 00:10:24;;;;;;;3.85;1.40;;;;;;;;;;5101895;28;20620;-83
2023/01/06 00:12:50;;;;;;;5.38;1.67;;;;;;;;;;5103658;28;20470;-84
2023/01/06 00:15:17;;;;;;;4.05;1.40;;;;;;;;;;5102173;28;20032;-82
2023/01/06 00:17:43;;;;;;;3.50;1.55;;;;;;;;;;5111413;28;20073;-83
2023/01/06 00:20:09;;;;;;;2.92;1.15;;;;;;;;;;5121302;28;20051;-82
2023/01/06 00:22:35;;;;;;;3.92;1.48;;;;;;;;;;5123387;28;20032;-83
2023/01/06 00:25:01;;;;;;;4.00;1.40;;;;;;;;;;5123349;28;20374;-82
2023/01/06 00:27:27;;;;;;;4.75;1.27;;;;;;;;;;5121341;28;20035;-83
2023/01/06 00:29:53;;;;;;;5.45;1.33;;;;;;;;;;5123736;28;20027;-83
2023/01/06 00:32:19;;;;;;;4.65;1.60;;;;;;;;;;5120263;28;20027;-83
2023/01/06 00:34:45;;;;;;;3.45;1.17;;;;;;;;;;5121464;28;20019;-82
2023/01/06 00:37:11;;;;;;;3.72;1.58;;;;;;;;;;5119327;28;20020;-82
2023/01/06 00:39:37;;;;;;;5.65;1.70;;;;;;;;;;5103254;28;20026;-82
2023/01/06 00:42:03;;;;;;;4.22;1.30;;;;;;;;;;5103005;28;20039;-81
2023/01/06 00:44:30;;;;;;;4.93;1.50;;;;;;;;;;5102867;28;20043;-82
2023/01/06 00:46:57;;;;;;;4.63;1.55;;;;;;;;;;5101718;28;20028;-81
2023/01/06 00:49:23;;;;;;;4.82;1.33;;;;;;;;;;5107553;28;20039;-82
2023/01/06 00:51:49;;;;;;;5.75;2.33;;;;;;;;;;5122095;28;20024;-81
2023/01/06 00:54:15;;;;;;;7.63;2.15;;;;;;;;;;5114134;28;20481;-81
2023/01/06 00:56:42;;;;;;;7.90;2.15;;;;;;;;;;5102824;28;20478;-81
2023/01/06 00:59:09;;;;;;;7.28;2.22;;;;;;;;;;5102167;28;20025;-81
2023/01/06 01:01:35;;;;;;;9.85;2.72;;;;;;;;;;5100632;28;20027;-81
2023/01/06 01:04:01;;;;;;;4.75;1.88;;;;;;;;;;5111946;28;20016;-81
2023/01/06 01:06:27;;;;;;;5.15;1.80;;;;;;;;;;5123286;28;20019;-81
2023/01/06 01:08:54;;;;;;;5.47;1.65;;;;;;;;;;5121528;28;20095;-82
2023/01/06 01:14:05;;;;;;;5.78;2.53;;;;;;;;;;5103509;28;20043;-82
2023/01/06 01:16:31;;;;;;;8.18;2.40;;;;;;;;;;5101564;28;20024;-81
2023/01/06 01:18:57;;;;;;;6.53;2.45;;;;;;;;;;5101286;28;20119;-82
2023/01/06 01:21:23;;;;;;;6.20;2.40;;;;;;;;;;5102167;28;20512;-81
2023/01/06 01:23:49;;;;;;;5.65;3.65;;;;;;;;;;5110870;28;20034;-81
2023/01/06 01:26:15;;;;;;;5.72;2.20;;;;;;;;;;5105629;28;20509;-82
2023/01/06 01:28:41;;;;;;;5.35;2.13;;;;;;;;;;5102312;28;20036;-82
2023/01/06 01:31:08;;;;;;;7.13;2.30;;;;;;;;;;5102119;28;20080;-82
2023/01/06 01:33:34;;;;;;;7.30;2.40;;;;;;;;;;5103400;28;20122;-82
2023/01/06 01:36:07;;;;;;;6.10;2.28;;;;;;;;;;5102041;28;20199;-82
2023/01/06 01:38:33;;;;;;;6.45;2.53;;;;;;;;;;5100145;28;20028;-82
2023/01/06 01:40:59;;;;;;;6.15;2.83;;;;;;;;;;5114963;28;20489;-82
2023/01/06 01:43:25;;;;;;;4.72;2.20;;;;;;;;;;5116125;28;20051;-82
2023/01/06 01:45:53;;;;;;;7.45;2.50;;;;;;;;;;5100937;28;20020;-81
2023/01/06 01:48:25;;;;;;;6.15;2.00;;;;;;;;;;5100008;28;20028;-82
2023/01/06 01:50:54;;;;;;;4.72;2.20;;;;;;;;;;5101934;28;20052;-82
2023/01/06 01:53:22;;;;;;;4.00;1.88;;;;;;;;;;5107274;28;20292;-80
2023/01/06 01:55:49;;;;;;;4.63;1.90;;;;;;;;;;5127887;28;20043;-82
2023/01/06 01:58:17;;;;;;;5.28;2.03;;;;;;;;;;5107774;28;20035;-81
2023/01/06 02:00:44;;;;;;;5.28;1.90;;;;;;;;;;5102452;28;20028;-81
2023/01/06 02:03:11;;;;;;;4.32;1.85;;;;;;;;;;5101135;28;20024;-81
2023/01/06 02:05:39;;;;;;;4.22;2.00;;;;;;;;;;5120607;28;20036;-81
2023/01/06 02:08:07;;;;;;;5.72;2.00;;;;;;;;;;5121289;28;20020;-81
2023/01/06 02:10:33;;;;;;;4.30;2.00;;;;;;;;;;5120932;28;20028;-81
2023/01/06 02:13:00;;;;;;;5.22;2.20;;;;;;;;;;5121254;28;20434;-82
2023/01/06 02:15:27;;;;;;;5.53;1.73;;;;;;;;;;5101920;28;20052;-81
2023/01/06 02:18:02;;;;;;;5.78;1.83;;;;;;;;;;5101160;28;20028;-80
2023/01/06 02:20:28;;;;;;;6.55;2.30;;;;;;;;;;5101716;28;20070;-81
2023/01/06 02:23:12;;;;;;;7.63;3.88;;;;;;;;;;5111776;28;20027;-82
2023/01/06 02:25:57;;;;;;;4.38;1.85;;;;;;;;;;5100387;28;20036;-82
2023/01/06 02:28:32;;;;;;;4.07;1.67;;;;;;;;;;5101553;28;20024;-81
2023/01/06 02:31:17;;;;;;;5.72;1.88;;;;;;;;;;5100100;28;20020;-81
2023/01/06 02:33:52;;;;;;;5.05;1.83;;;;;;;;;;5105938;28;20043;-82
2023/01/06 02:36:27;;;;;;;7.97;2.13;;;;;;;;;;5122174;28;20096;-82
2023/01/06 02:39:11;;;;;;;6.15;2.53;;;;;;;;;;5100166;28;20059;-81
2023/01/06 02:41:40;;;;;;;5.05;2.00;;;;;;;;;;5101017;28;20590;-81
2023/01/06 02:44:10;;;;;;;5.82;1.92;;;;;;;;;;5108022;28;20055;-82
2023/01/06 02:46:55;;;;;;;3.55;1.60;;;;;;;;;;5120600;28;20398;-82
2023/01/06 02:49:31;;;;;;;5.45;1.90;;;;;;;;;;5120485;28;20032;-82
2023/01/06 02:51:57;;;;;;;5.95;2.30;;;;;;;;;;5113863;28;20035;-81
2023/01/06 02:54:40;;;;;;;9.43;2.80;;;;;;;;;;5112383;28;20032;-82
2023/01/06 02:57:11;;;;;;;5.55;2.60;;;;;;;;;;5119725;28;20023;-82
2023/01/06 02:59:41;;;;;;;8.35;2.42;;;;;;;;;;5123350;28;20079;-81
2023/01/06 03:02:09;;;;;;;8.02;2.33;;;;;;;;;;5117434;28;20043;-82
2023/01/06 03:04:37;;;;;;;6.45;2.38;;;;;;;;;;5113703;28;20019;-83
2023/01/06 03:07:04;;;;;;;5.25;2.33;;;;;;;;;;5121731;28;20027;-82
2023/01/06 03:09:33;;;;;;;10.40;2.47;;;;;;;;;;5123212;28;20019;-82
2023/01/06 03:12:01;;;;;;;7.45;2.70;;;;;;;;;;5123237;28;20020;-82
2023/01/06 03:14:34;;;;;;;6.63;2.40;;;;;;;;;;5121688;28;20039;-82
2023/01/06 03:17:00;;;;;;;6.03;2.17;;;;;;;;;;5122326;28;20489;-81
2023/01/06 03:19:26;;;;;;;6.38;2.38;;;;;;;;;;5121539;28;20023;-80
2023/01/06 03:21:53;;;;;;;8.27;3.03;;;;;;;;;;5122323;28;20042;-81
2023/01/06 03:24:19;;;;;;;7.40;2.40;;;;;;;;;;5110250;28;20408;-81
2023/01/06 03:26:46;;;;;;;7.40;2.60;;;;;;;;;;5099396;28;20119;-80
2023/01/06 03:29:14;;;;;;;7.47;2.60;;;;;;;;;;5101153;28;20401;-81
2023/01/06 03:31:47;;;;;;;4.97;2.17;;;;;;;;;;5101931;28;20020;-82
2023/01/06 03:34:31;;;;;;;6.93;2.30;;;;;;;;;;5112007;28;20031;-82
2023/01/06 03:37:09;;;;;;;5.50;2.40;;;;;;;;;;5124764;28;20020;-81
2023/01/06 03:39:54;;;;;;;6.97;2.60;;;;;;;;;;5125381;28;20595;-82
2023/01/06 03:45:11;;;;;;;4.85;2.25;;;;;;;;;;5117357;28;20053;-81
2023/01/06 03:47:40;;;;;;;4.18;1.92;;;;;;;;;;5125038;27;20053;-82
2023/01/06 03:50:12;;;;;;;6.60;2.70;;;;;;;;;;5124530;28;20023;-82
2023/01/06 03:52:42;;;;;;;5.68;2.80;;;;;;;;;;5125001;28;20027;-82
2023/01/06 03:55:13;;;;;;;7.15;2.50;;;;;;;;;;5108548;28;20615;-81
2023/01/06 03:57:42;;;;;;;6.10;2.63;;;;;;;;;;5116293;28;20217;-80
2023/01/06 04:00:11;;;;;;;8.20;2.88;;;;;;;;;;5106924;28;20024;-82
2023/01/06 04:02:37;;;;;;;9.32;2.28;;;;;;;;;;5104892;28;20114;-82
2023/01/06 04:05:06;;;;;;;7.28;2.70;;;;;;;;;;5104871;28;20028;-81
2023/01/06 04:07:32;;;;;;;5.65;2.25;;;;;;;;;;5105115;28;20652;-82
2023/01/06 04:09:58;;;;;;;6.53;2.30;;;;;;;;;;5102967;28;20012;-82
2023/01/06 04:12:39;;;;;;;5.15;2.47;;;;;;;;;;5104054;28;20390;-80
2023/01/06 04:15:06;;;;;;;7.50;2.20;;;;;;;;;;5102577;28;20545;-82
2023/01/06 04:17:32;;;;;;;8.27;2.50;;;;;;;;;;5103838;28;20074;-81
2023/01/06 04:19:58;;;;;;;5.65;2.42;;;;;;;;;;5102912;28;20020;-82
2023/01/06 04:22:25;;;;;;;7.97;3.00;;;;;;;;;;5103642;28;20065;-81
2023/01/06 04:24:51;;;;;;;7.82;3.65;;;;;;;;;;5101356;28;20021;-81
2023/01/06 04:27:17;;;;;;;6.47;2.45;;;;;;;;;;5103123;28;20027;-81
2023/01/06 04:29:43;;;;;;;6.50;2.55;;;;;;;;;;5102475;28;20096;-81
2023/01/06 04:32:09;;;;;;;7.05;2.78;;;;;;;;;;5102731;28;20062;-82
2023/01/06 04:34:35;;;;;;;6.28;2.33;;;;;;;;;;5101844;28;20025;-81
2023/01/06 04:37:01;;;;;;;7.00;2.83;;;;;;;;;;5100583;28;20032;-81
2023/01/06 04:39:27;;;;;;;6.85;2.92;;;;;;;;;;5103868;28;20533;-81
2023/01/06 04:41:53;;;;;;;7.65;2.58;;;;;;;;;;5103415;28;20061;-82
2023/01/06 04:44:19;;;;;;;7.32;3.13;;;;;;;;;;5113554;28;20065;-82
2023/01/06 04:46:46;;;;;;;6.05;3.15;;;;;;;;;;5122678;28;20117;-82
2023/01/06 04:49:12;;;;;;;7.68;3.28;;;;;;;;;;5122437;28;20031;-82
2023/01/06 04:51:38;;;;;;;8.77;3.53;;;;;;;;;;5124382;28;20020;-82
2023/01/06 04:54:04;;;;;;;7.18;2.83;;;;;;;;;;5121112;28;20049;-82
2023/01/06 04:56:30;;;;;;;8.70;2.72;;;;;;;;;;5107648;28;20039;-82
2023/01/06 04:58:56;;;;;;;8.57;3.17;;;;;;;;;;5103470;28;20016;-82
2023/01/06 05:01:23;;;;;;;6.93;3.05;;;;;;;;;;5102608;28;20070;-82
2023/01/06 05:03:49;;;;;;;7.10;3.03;;;;;;;;;;5101877;28;20019;-81
2023/01/06 05:06:16;;;;;;;7.05;2.75;;;;;;;;;;5103437;28;20024;-82
2023/01/06 05:08:42;;;;;;;11.15;4.28;;;;;;;;;;5103116;28;20050;-81
2023/01/06 05:11:10;;;;;;;7.75;2.60;;;;;;;;;;5117459;28;20024;-81
2023/01/06 05:13:36;;;;;;;8.10;3.10;;;;;;;;;;5121463;28;20054;-81
2023/01/06 05:16:10;;;;;;;6.35;3.17;;;;;;;;;;5101465;28;20012;-81
2023/01/06 05:18:36;;;;;;;6.22;2.88;;;;;;;;;;5101804;28;20489;-81
2023/01/06 05:21:02;;;;;;;9.80;3.25;;;;;;;;;;5101316;28;20513;-82
2023/01/06 05:23:28;;;;;;;7.22;3.53;;;;;;;;;;5101951;28;20024;-82
2023/01/06 05:25:54;;;;;;;9.52;3.30;;;;;;;;;;5120402;28;20389;-81
2023/01/06 05:28:20;;;;;;;6.82;2.95;;;;;;;;;;5122013;28;20028;-83
2023/01/06 05:30:46;;;;;;;7.80;3.60;;;;;;;;;;5122778;28;20084;-82
2023/01/06 05:33:13;;;;;;;7.68;3.28;;;;;;;;;;5122018;28;20562;-82
2023/01/06 05:35:39;;;;;;;7.75;3.10;;;;;;;;;;5103891;28;20020;-82
2023/01/06 05:38:05;;;;;;;8.50;3.92;;;;;;;;;;5103658;28;20054;-81
2023/01/06 05:40:31;;;;;;;9.55;3.45;;;;;;;;;;5101324;28;20054;-82
2023/01/06 05:42:57;;;;;;;6.90;3.50;;;;;;;;;;5102905;28;20024;-82
2023/01/06 05:45:24;;;;;;;6.40;2.80;;;;;;;;;;5117727;28;20024;-82
2023/01/06 05:47:50;;;;;;;6.63;3.00;;;;;;;;;;5122396;28;20537;-83
2023/01/06 05:50:16;;;;;;;7.20;3.55;;;;;;;;;;5123843;28;20031;-82
2023/01/06 05:52:42;;;;;;;12.07;4.05;;;;;;;;;;5110605;28;20055;-82
2023/01/06 05:55:08;;;;;;;12.02;3.80;;;;;;;;;;5114414;28;20028;-83
2023/01/06 05:57:34;;;;;;;8.00;3.63;;;;;;;;;;5121732;28;20030;-82
2023/01/06 06:00:01;;;;;;;10.55;3.70;;;;;;;;;;5127036;28;20023;-82
2023/01/06 06:02:27;;;;;;;8.32;3.40;;;;;;;;;;5124050;28;20027;-81
2023/01/06 06:04:52;;;;;;;6.88;3.33;;;;;;;;;;5110656;28;20051;-82
2023/01/06 06:07:18;;;;;;;10.15;3.67;;;;;;;;;;5100964;28;20020;-81
2023/01/06 06:09:44;;;;;;;7.78;3.22;;;;;;;;;;5101726;28;20020;-82
2023/01/06 06:12:12;;;;;;;9.13;3.53;;;;;;;;;;5101804;28;20023;-81
2023/01/06 06:14:38;;;;;;;11.63;3.90;;;;;;;;;;5111909;28;20478;-82
2023/01/06 06:17:04;;;;;;;8.23;3.28;;;;;;;;;;5122443;28;20022;-82
2023/01/06 06:19:30;;;;;;;9.43;3.78;;;;;;;;;;5122925;28;20016;-82
2023/01/06 06:21:56;;;;;;;11.10;4.47;;;;;;;;;;5122240;28;20059;-81
2023/01/06 06:24:22;;;;;;;7.63;3.25;;;;;;;;;;5120489;28;20113;-81
2023/01/06 06:26:48;;;;;;;9.68;4.30;;;;;;;;;;5121967;28;20028;-82
2023/01/06 06:29:14;;;;;;;9.10;4.50;;;;;;;;;;5120950;28;20019;-82
2023/01/06 06:31:40;;;;;;;10.23;4.75;;;;;;;;;;5120292;28;20028;-81
2023/01/06 06:34:06;;;;;;;9.27;4.85;;;;;;;;;;5116267;28;20048;-82
2023/01/06 06:36:32;;;;;;;9.10;5.82;;;;;;;;;;5095970;28;20028;-82
2023/01/06 06:38:58;;;;;;;11.60;5.78;;;;;;;;;;5094751;28;20043;-82
2023/01/06 06:41:25;;;;;;;10.18;6.15;;;;;;;;;;5098975;28;20111;-83
2023/01/06 06:43:51;;;;;;;10.20;4.88;;;;;;;;;;5101802;28;20099;-82
2023/01/06 06:46:18;;;;;;;10.60;5.00;;;;;;;;;;5119538;28;20087;-82
2023/01/06 06:48:44;;;;;;;6.43;3.75;;;;;;;;;;5119210;28;20054;-82
2023/01/06 06:51:11;;;;;;;10.40;4.70;;;;;;;;;;5120619;28;20042;-82
2023/01/06 06:53:38;;;;;;;9.65;4.40;;;;;;;;;;5119384;28;20024;-82
2023/01/06 06:56:04;;;;;;;9.50;4.53;;;;;;;;;;5100653;28;20040;-82
2023/01/06 06:58:31;;;;;;;11.80;4.20;;;;;;;;;;5101456;28;20022;-82
2023/01/06 07:00:57;;;;;;;6.30;3.50;;;;;;;;;;5103872;28;20028;-82
2023/01/06 07:03:24;;;;;;;9.63;5.43;;;;;;;;;;5106631;28;20144;-83
2023/01/06 07:05:51;;;;;;;9.10;5.20;;;;;;;;;;5107209;28;20024;-81
2023/01/06 07:08:17;;;;;;;17.40;7.00;;;;;;;;;;5107695;28;20042;-82
2023/01/06 07:10:43;;;;;;;14.80;6.85;;;;;;;;;;5107227;28;20035;-81
2023/01/06 07:13:10;;;;;;;13.40;8.13;;;;;;;;;;5107038;28;20035;-81
2023/01/06 07:15:36;;;;;;;11.40;6.50;;;;;;;;;;5118569;28;20062;-81
2023/01/06 07:18:03;;;;;;;13.77;6.38;;;;;;;;;;5124582;28;20038;-82
2023/01/06 07:20:29;;;;;;;13.90;5.63;;;;;;;;;;5125137;28;20389;-82
2023/01/06 07:22:55;;;;;;;11.65;4.78;;;;;;;;;;5125371;28;20500;-82
2023/01/06 07:25:21;;;;;;;8.98;4.97;;;;;;;;;;5110131;28;20028;-82
2023/01/06 07:27:52;;;;;;;12.38;5.18;;;;;;;;;;5104656;28;20027;-82
2023/01/06 07:30:18;;;;;;;9.05;4.47;;;;;;;;;;5102929;28;20012;-81
2023/01/06 07:32:44;;;;;;;11.02;5.03;;;;;;;;;;5104478;28;20027;-82
2023/01/06 07:35:10;;;;;;;12.48;4.70;;;;;;;;;;5115554;28;20016;-82
2023/01/06 07:37:36;;;;;;;8.63;5.32;;;;;;;;;;5125119;28;20542;-82
2023/01/06 07:40:02;;;;;;;10.63;5.32;;;;;;;;;;5123631;28;20020;-82
2023/01/06 07:42:28;;;;;;;12.85;5.45;;;;;;;;;;5124739;28;20061;-81
2023/01/06 07:44:54;;;;;;;9.88;5.07;;;;;;;;;;5107479;28;20055;-82
2023/01/06 07:47:20;;;;;;;11.40;5.50;;;;;;;;;;5103912;28;20452;-82
2023/01/06 07:49:46;;;;;;;9.90;5.57;;;;;;;;;;5104573;28;20079;-82
2023/01/06 07:52:12;;;;;;;13.43;6.50;;;;;;;;;;5104773;28;20032;-82
2023/01/06 07:54:38;;;;;;;10.30;5.18;;;;;;;;;;5109867;28;20052;-82
2023/01/06 07:57:04;;;;;;;10.77;6.15;;;;;;;;;;5122649;28;20091;-82
2023/01/06 07:59:30;;;;;;;9.85;6.18;;;;;;;;;;5109505;28;20460;-82
2023/01/06 08:01:56;;;;;;;27.33;16.63;;;;;;;;;;5107331;28;20017;-80
2023/01/06 08:04:23;;;;;;;15.70;8.38;;;;;;;;;;5111325;28;20393;-82
2023/01/06 08:06:49;;;;;;;19.42;7.88;;;;;;;;;;5116230;28;20038;-81
2023/01/06 08:09:15;;;;;;;29.48;13.30;;;;;;;;;;5103411;28;20283;-82
2023/01/06 08:11:41;;;;;;;11.50;7.35;;;;;;;;;;5103377;28;20069;-81
2023/01/06 08:14:07;;;;;;;16.70;8.63;;;;;;;;;;5104170;28;20031;-82
2023/01/06 08:16:33;;;;;;;11.88;6.30;;;;;;;;;;5108673;28;20026;-81
2023/01/06 08:18:59;;;;;;;9.98;5.38;;;;;;;;;;5122671;28;20027;-83
2023/01/06 08:21:25;;;;;;;10.13;5.53;;;;;;;;;;5122244;28;20024;-82
2023/01/06 08:23:51;;;;;;;8.60;4.70;;;;;;;;;;5121484;28;20371;-82
2023/01/06 08:26:17;;;;;;;8.60;4.35;;;;;;;;;;5101203;28;20032;-82
2023/01/06 08:28:45;;;;;;;14.07;6.65;;;;;;;;;;5101452;28;20036;-81
2023/01/06 08:31:15;;;;;;;9.82;5.03;;;;;;;;;;5100436;28;20527;-81
2023/01/06 08:33:41;;;;;;;11.57;5.70;;;;;;;;;;5099653;28;20422;-81
2023/01/06 08:36:08;;;;;;;10.55;4.60;;;;;;;;;;5116342;28;20039;-82
2023/01/06 08:38:34;;;;;;;10.48;4.43;;;;;;;;;;5101054;28;20501;-82
2023/01/06 08:41:01;;;;;;;11.43;4.25;;;;;;;;;;5101079;28;20028;-82
2023/01/06 08:43:27;;;;;;;11.40;5.25;;;;;;;;;;5100256;28;20470;-82
2023/01/06 08:45:53;;;;;;;9.60;4.10;;;;;;;;;;5116443;28;20053;-82
2023/01/06 08:48:19;;;;;;;9.93;4.43;;;;;;;;;;5101070;28;20127;-82
2023/01/06 08:50:46;;;;;;;9.88;4.20;;;;;;;;;;5121827;28;20091;-82
2023/01/06 08:53:12;;;;;;;8.45;3.90;;;;;;;;;;5123507;28;20072;-82
2023/01/06 08:55:38;;;;;;;10.20;3.30;;;;;;;;;;5122620;28;20065;-82
2023/01/06 08:58:04;;;;;;;5.57;3.20;;;;;;;;;;5122207;28;20478;-81
2023/01/06 09:00:30;;;;;;;7.88;3.28;;;;;;;;;;5121936;28;20077;-83
2023/01/06 09:02:56;;;;;;;8.27;4.07;;;;;;;;;;5113780;28;20012;-82
2023/01/06 09:05:23;;;;;;;8.68;3.78;;;;;;;;;;5102893;28;20028;-82
2023/01/06 09:07:53;;;;;;;8.95;4.35;;;;;;;;;;5102519;28;20031;-82
2023/01/06 09:10:19;;;;;;;8.43;4.35;;;;;;;;;;5101643;28;20016;-83
2023/01/06 09:12:45;;;;;;;9.65;4.18;;;;;;;;;;5102345;28;20020;-81
2023/01/06 09:15:12;;;;;;;12.05;4.93;;;;;;;;;;5111331;28;20026;-82
2023/01/06 09:17:38;;;;;;;7.38;3.95;;;;;;;;;;5112225;28;20034;-82
2023/01/06 09:20:04;;;;;;;7.25;3.72;;;;;;;;;;5102528;28;20088;-81
2023/01/06 09:22:30;;;;;;;6.93;3.53;;;;;;;;;;5100511;28;20028;-82
2023/01/06 09:24:56;;;;;;;8.35;3.70;;;;;;;;;;5106789;28;20020;-82
2023/01/06 09:27:22;;;;;;;10.80;3.90;;;;;;;;;;5121055;28;20066;-81
2023/01/06 09:29:48;;;;;;;11.18;4.05;;;;;;;;;;5121676;28;20385;-82
2023/01/06 09:32:14;;;;;;;13.13;3.90;;;;;;;;;;5111139;28;20021;-82
2023/01/06 09:34:40;;;;;;;9.57;3.70;;;;;;;;;;5101143;28;20054;-84
2023/01/06 09:37:06;;;;;;;8.07;3.92;;;;;;;;;;5103403;28;20028;-82
2023/01/06 09:39:32;;;;;;;10.15;3.90;;;;;;;;;;5102116;28;20024;-82
2023/01/06 09:42:13;;;;;;;9.95;4.40;;;;;;;;;;5102686;28;20470;-82
2023/01/06 09:44:39;;;;;;;8.73;4.25;;;;;;;;;;5105574;28;20044;-82
2023/01/06 09:47:09;;;;;;;9.90;3.95;;;;;;;;;;5116985;28;20406;-82
2023/01/06 09:49:36;;;;;;;10.18;3.92;;;;;;;;;;5101754;28;20020;-82
2023/01/06 09:52:11;;;;;;;9.00;3.95;;;;;;;;;;5102350;28;20016;-82
2023/01/06 09:54:41;;;;;;;10.95;3.70;;;;;;;;;;5105315;28;20023;-82
2023/01/06 09:57:12;;;;;;;10.10;3.88;;;;;;;;;;5116433;28;20026;-83
2023/01/06 09:59:45;;;;;;;9.80;4.30;;;;;;;;;;5101425;28;20076;-82
2023/01/06 10:02:17;;;;;;;8.15;4.00;;;;;;;;;;5127318;27;20023;-82
2023/01/06 10:04:43;;;;;;;7.72;3.92;;;;;;;;;;5144361;27;20015;-82
2023/01/06 10:07:09;;;;;;;8.77;4.78;;;;;;;;;;5141729;27;20039;-81
2023/01/06 10:09:53;;;;;;;7.53;4.15;;;;;;;;;;5142836;27;20030;-83
2023/01/06 10:12:51;;;;;;;12.82;4.50;;;;;;;;;;5128191;27;20027;-82
2023/01/06 10:15:42;;;;;;;8.13;3.85;;;;;;;;;;5097591;28;20031;-83
2023/01/06 10:18:20;;;;;;;12.52;4.40;;;;;;;;;;5099689;28;20020;-82
2023/01/06 10:20:50;;;;;;;13.50;4.75;;;;;;;;;;5100880;28;20046;-82
2023/01/06 10:23:35;;;;;;;10.05;4.50;;;;;;;;;;5121449;28;20031;-82
2023/01/06 10:26:01;;;;;;;12.30;4.80;;;;;;;;;;5118935;28;20027;-82
2023/01/06 10:28:29;;;;;;;9.38;4.38;;;;;;;;;;5121161;28;20051;-82
2023/01/06 10:30:57;;;;;;;11.52;4.43;;;;;;;;;;5117579;28;20031;-81
2023/01/06 10:33:37;;;;;;;8.77;4.38;;;;;;;;;;5099509;28;20077;-82
2023/01/06 10:36:03;;;;;;;9.20;4.90;;;;;;;;;;5099593;28;20024;-82
2023/01/06 10:38:31;;;;;;;10.75;5.40;;;;;;;;;;5101197;28;20032;-82
2023/01/06 10:41:02;;;;;;;8.25;4.53;;;;;;;;;;5101029;28;20028;-82
2023/01/06 10:43:28;;;;;;;13.68;6.53;;;;;;;;;;5101813;28;20350;-82
2023/01/06 10:45:54;;;;;;;12.60;5.43;;;;;;;;;;5100949;28;20244;-82
2023/01/06 10:48:23;;;;;;;10.23;4.88;;;;;;;;;;5099203;28;20028;-82
2023/01/06 10:50:49;;;;;;;12.75;5.72;;;;;;;;;;5100215;28;20068;-83
2023/01/06 10:53:16;;;;;;;15.73;5.32;;;;;;;;;;5119348;28;20020;-82
2023/01/06 10:55:42;;;;;;;10.10;4.97;;;;;;;;;;5120514;28;20100;-82
2023/01/06 10:58:14;;;;;;;10.63;5.53;;;;;;;;;;5117598;28;20019;-79
2023/01/06 11:00:53;;;;;;;10.47;4.83;;;;;;;;;;5099697;28;20082;-82
2023/01/06 11:03:20;;;;;;;9.25;5.70;;;;;;;;;;5097810;28;20282;-81
2023/01/06 11:05:46;;;;;;;9.32;4.90;;;;;;;;;;5105203;28;20028;-82
2023/01/06 11:08:13;;;;;;;10.30;5.55;;;;;;;;;;5119367;28;20027;-82
2023/01/06 11:10:42;;;;;;;9.38;4.90;;;;;;;;;;5119424;28;20024;-82
2023/01/06 11:13:21;;;;;;;10.23;4.63;;;;;;;;;;5118591;28;20102;-81
2023/01/06 11:15:47;;;;;;;11.38;4.80;;;;;;;;;;5118463;28;20027;-82
2023/01/06 11:18:32;;;;;;;10.10;5.25;;;;;;;;;;5118874;28;20508;-82
2023/01/06 11:21:04;;;;;;;12.90;6.45;;;;;;;;;;5119899;28;20024;-82
2023/01/06 11:23:30;;;;;;;9.40;4.65;;;;;;;;;;5117531;28;20027;-82
2023/01/06 11:26:16;;;;;;;8.77;4.45;;;;;;;;;;5119209;28;20024;-81
2023/01/06 11:28:44;;;;;;;11.75;5.88;;;;;;;;;;5106574;28;20032;-82
2023/01/06 11:31:13;;;;;;;12.52;5.90;;;;;;;;;;5099059;28;20028;-82
2023/01/06 11:33:53;;;;;;;12.20;5.28;;;;;;;;;;5103031;28;20403;-82
2023/01/06 11:36:21;;;;;;;9.40;4.80;;;;;;;;;;5119588;28;20045;-82
2023/01/06 11:38:49;;;;;;;10.10;4.80;;;;;;;;;;5105204;28;20024;-81
2023/01/06 11:41:22;;;;;;;9.88;4.72;;;;;;;;;;5097610;28;20024;-83
2023/01/06 11:43:48;;;;;;;8.75;5.25;;;;;;;;;;5106406;28;20075;-82
2023/01/06 11:46:14;;;;;;;10.80;5.10;;;;;;;;;;5097880;28;20078;-82
2023/01/06 11:48:48;;;;;;;9.68;5.32;;;;;;;;;;5101822;28;20028;-82
2023/01/06 11:51:14;;;;;;;9.25;4.90;;;;;;;;;;5102070;28;20024;-82
2023/01/06 11:53:53;;;;;;;10.43;5.15;;;;;;;;;;5100032;28;20096;-82
2023/01/06 11:56:19;;;;;;;8.95;4.75;;;;;;;;;;5108267;28;20050;-82
2023/01/06 11:58:52;;;;;;;9.32;4.68;;;;;;;;;;5101146;28;20482;-82
2023/01/06 12:01:31;;;;;;;10.15;5.03;;;;;;;;;;5104639;28;20028;-81
2023/01/06 12:04:18;;;;;;;14.77;7.00;;;;;;;;;;5104017;28;20021;-80
2023/01/06 12:06:44;;;;;;;10.07;5.00;;;;;;;;;;5101919;28;20031;-82
2023/01/06 12:09:10;;;;;;;12.57;6.70;;;;;;;;;;5103792;28;20026;-82
2023/01/06 12:12:06;;;;;;;11.45;5.38;;;;;;;;;;5114169;28;20020;-82
2023/01/06 12:14:36;;;;;;;8.52;4.50;;;;;;;;;;5101134;28;20035;-82
2023/01/06 12:17:17;;;;;;;11.82;5.60;;;;;;;;;;5099907;28;20314;-82
2023/01/06 12:19:52;;;;;;;12.88;6.25;;;;;;;;;;5100123;28;20028;-83
2023/01/06 12:22:27;;;;;;;10.88;4.88;;;;;;;;;;5098756;28;20107;-82
2023/01/06 12:24:55;;;;;;;9.82;5.35;;;;;;;;;;5114624;28;20450;-82
2023/01/06 12:27:34;;;;;;;9.57;4.93;;;;;;;;;;5120509;28;20051;-82
2023/01/06 12:30:03;;;;;;;10.32;4.78;;;;;;;;;;5120191;28;20083;-83
2023/01/06 12:32:33;;;;;;;8.98;5.32;;;;;;;;;;5120004;28;20045;-82
2023/01/06 12:35:00;;;;;;;10.75;5.25;;;;;;;;;;5118785;28;20366;-82
2023/01/06 12:37:30;;;;;;;8.05;4.43;;;;;;;;;;5118699;28;20024;-82
2023/01/06 12:40:09;;;;;;;14.43;6.63;;;;;;;;;;5117921;28;20422;-82
2023/01/06 12:42:37;;;;;;;12.52;7.50;;;;;;;;;;5119893;28;20032;-83
2023/01/06 12:45:03;;;;;;;11.55;6.93;;;;;;;;;;5119590;28;20184;-82
2023/01/06 12:47:44;;;;;;;9.15;5.63;;;;;;;;;;5119788;28;20076;-82
2023/01/06 12:50:34;;;;;;;12.00;5.80;;;;;;;;;;5120549;28;20370;-83
2023/01/06 12:53:18;;;;;;;10.82;6.43;;;;;;;;;;5121000;28;20023;-83
2023/01/06 12:56:00;;;;;;;11.02;6.75;;;;;;;;;;5119620;28;20027;-82
2023/01/06 12:58:26;;;;;;;9.98;6.15;;;;;;;;;;5119968;28;20030;-82
2023/01/06 13:00:54;;;;;;;9.63;5.38;;;;;;;;;;5120524;28;20028;-82
2023/01/06 13:03:20;;;;;;;8.93;5.65;;;;;;;;;;5120593;28;20036;-82
2023/01/06 13:06:01;;;;;;;10.95;5.47;;;;;;;;;;5120577;28;20111;-83
2023/01/06 13:08:31;;;;;;;12.30;5.85;;;;;;;;;;5121129;28;20053;-82
2023/01/06 13:11:12;;;;;;;10.65;6.45;;;;;;;;;;5119217;28;20485;-83
2023/01/06 13:13:41;;;;;;;16.10;9.02;;;;;;;;;;5119954;28;20069;-82
2023/01/06 13:16:28;;;;;;;21.85;12.43;;;;;;;;;;5122484;28;20020;-81
2023/01/06 13:19:32;;;;;;;16.35;7.97;;;;;;;;;;5119114;28;20083;-82
2023/01/06 13:21:59;;;;;;;10.93;6.65;;;;;;;;;;5044297;28;20029;-82
2023/01/06 13:24:28;;;;;;;12.80;6.80;;;;;;;;;;5078611;28;20050;-82
2023/01/06 13:27:07;;;;;;;10.95;6.43;;;;;;;;;;5077940;28;20442;-82
2023/01/06 13:29:51;;;;;;;11.73;6.15;;;;;;;;;;5060913;28;20045;-82
2023/01/06 13:32:29;;;;;;;13.82;9.25;;;;;;;;;;5078517;28;20020;-83
2023/01/06 13:35:20;;;;;;;11.60;7.43;;;;;;;;;;5061755;28;20047;-82
2023/01/06 13:38:04;;;;;;;12.48;7.60;;;;;;;;;;5051783;28;20028;-83
2023/01/06 13:40:31;;;;;;;11.40;6.80;;;;;;;;;;5042054;28;20033;-82
2023/01/06 13:43:00;;;;;;;34.13;21.25;;;;;;;;;;5060493;28;20029;-83
2023/01/06 13:45:30;;;;;;;25.10;16.67;;;;;;;;;;5057242;28;20037;-83
2023/01/06 13:47:57;;;;;;;28.27;17.08;;;;;;;;;;5041128;28;20025;-83
2023/01/06 13:50:23;;;;;;;25.25;16.02;;;;;;;;;;5059004;28;20017;-83
2023/01/06 13:52:50;;;;;;;22.42;14.13;;;;;;;;;;5084152;28;20047;-83
2023/01/06 13:55:19;;;;;;;21.30;13.05;;;;;;;;;;5100482;28;20023;-82
2023/01/06 13:57:45;;;;;;;16.88;10.43;;;;;;;;;;5107223;28;20048;-82
2023/01/06 14:00:16;;;;;;;9.88;6.53;;;;;;;;;;5124290;28;20024;-82
2023/01/06 14:02:45;;;;;;;9.20;5.85;;;;;;;;;;5117423;28;20019;-82
2023/01/06 14:05:20;;;;;;;9.35;5.90;;;;;;;;;;5099137;28;20081;-83
2023/01/06 14:08:00;;;;;;;8.35;5.20;;;;;;;;;;5111046;28;20027;-82
2023/01/06 14:10:32;;;;;;;11.98;7.32;;;;;;;;;;5113541;28;20245;-82
2023/01/06 14:13:00;;;;;;;10.25;6.20;;;;;;;;;;5109299;28;20675;-83
2023/01/06 14:15:30;;;;;;;13.43;7.90;;;;;;;;;;5094483;28;20028;-81
2023/01/06 14:17:56;;;;;;;16.98;8.93;;;;;;;;;;5094688;28;20043;-82
2023/01/06 14:20:26;;;;;;;7.95;4.05;;;;;;;;;;5095464;28;20107;-82
2023/01/06 14:23:06;;;;;;;7.30;3.65;;;;;;;;;;5096527;28;20028;-82
2023/01/06 14:25:36;;;;;;;6.00;3.50;;;;;;;;;;5095723;28;20192;-83
2023/01/06 14:28:02;;;;;;;7.05;3.40;;;;;;;;;;5096131;28;20035;-83
2023/01/06 14:30:29;;;;;;;6.97;3.45;;;;;;;;;;5096142;28;20478;-83
2023/01/06 14:33:21;;;;;;;8.27;3.55;;;;;;;;;;5113972;28;20485;-83
2023/01/06 14:35:47;;;;;;;7.97;3.50;;;;;;;;;;5115814;28;20049;-82
2023/01/06 14:38:36;;;;;;;7.15;3.20;;;;;;;;;;5114836;28;20092;-83
2023/01/06 14:41:02;;;;;;;7.53;3.13;;;;;;;;;;5116824;28;20085;-83
2023/01/06 14:43:28;;;;;;;8.50;4.95;;;;;;;;;;5115988;28;20040;-82
2023/01/06 14:45:54;;;;;;;9.35;4.72;;;;;;;;;;5117920;28;20027;-82
2023/01/06 14:48:21;;;;;;;10.07;5.15;;;;;;;;;;5116596;28;20032;-82
2023/01/06 14:50:49;;;;;;;8.77;4.90;;;;;;;;;;5116249;28;20366;-83
2023/01/06 14:53:27;;;;;;;6.78;3.65;;;;;;;;;;5095742;28;20058;-82
2023/01/06 14:55:54;;;;;;;8.90;3.78;;;;;;;;;;5102491;28;20027;-81